Time;durP1;ratioP1;P1;durP2;ratioP2;P2;SDS_P1;SDS_P2;PMS_P1;PMS_P2;Temp;Humidity;BMP_temperature;BMP_pressure;BME280_temperature;BME280_humidity;BME280_pressure;Samples;Min_cycle;Max_cycle;Signal;HPM_P1;HPM_P2
2022/08/07 00:01:36;;;;;;;6.03;3.50;;;11.90;99.90;;;-144.05;67.67;125687.94;4904962;29;20024;-90
2022/08/07 00:04:05;;;;;;;5.13;2.97;;;11.80;99.90;;;-144.05;67.91;125687.94;4905957;29;20040;-89
2022/08/07 00:06:31;;;;;;;7.13;3.15;;;11.80;99.90;;;-144.05;67.88;125687.94;4906191;29;20039;-90
2022/08/07 00:08:57;;;;;;;9.32;3.33;;;11.80;99.90;;;-144.05;67.86;125687.94;4922704;29;20032;-88
2022/08/07 00:11:23;;;;;;;4.80;2.70;;;11.70;99.90;;;-144.05;68.54;125687.94;4904609;29;20040;-90
2022/08/07 00:13:56;;;;;;;4.55;2.58;;;11.70;99.90;;;-144.05;68.81;125687.94;4919423;29;20549;-90
2022/08/07 00:16:22;;;;;;;4.97;3.00;;;11.70;99.90;;;-144.05;69.07;125687.94;4920785;29;20032;-88
2022/08/07 00:18:48;;;;;;;5.15;2.92;;;11.70;99.90;;;-144.05;69.34;125687.94;4903535;29;20039;-88
2022/08/07 00:21:14;;;;;;;4.55;2.72;;;11.60;99.90;;;-144.05;69.90;125687.94;4902219;29;20036;-89
2022/08/07 00:23:40;;;;;;;7.28;3.13;;;11.60;99.90;;;-144.05;69.63;125687.94;4903286;29;20082;-89
2022/08/07 00:26:10;;;;;;;5.15;3.70;;;11.60;99.90;;;-144.05;70.10;125687.94;4919818;29;20061;-88
2022/08/07 00:28:37;;;;;;;3.83;3.38;;;11.60;99.90;;;-144.05;70.10;125687.94;4920273;29;20064;-86
2022/08/07 00:31:08;;;;;;;6.93;3.40;;;11.60;99.90;;;-144.05;70.39;125687.94;4924968;29;20047;-88
2022/08/07 00:33:37;;;;;;;7.43;3.80;;;11.60;99.90;;;-144.05;70.59;125687.94;4906107;29;20044;-88
2022/08/07 00:36:06;;;;;;;5.53;3.38;;;11.50;99.90;;;-144.05;70.78;125687.94;4921513;29;20495;-89
2022/08/07 00:38:35;;;;;;;5.68;3.78;;;11.50;99.90;;;-144.05;71.10;125687.94;4902485;29;20039;-90
2022/08/07 00:41:03;;;;;;;5.07;3.47;;;11.40;99.90;;;-144.05;71.34;125687.94;4919314;29;20028;-88
2022/08/07 00:43:30;;;;;;;6.70;3.35;;;11.50;99.90;;;-144.05;71.92;125687.94;4901958;29;20039;-88
2022/08/07 00:45:59;;;;;;;5.35;3.42;;;11.40;99.90;;;-144.05;71.62;125687.94;4903339;29;20063;-88
2022/08/07 00:48:25;;;;;;;6.35;3.78;;;11.40;99.90;;;-144.05;71.79;125687.94;4910528;29;20028;-88
2022/08/07 00:50:51;;;;;;;7.68;3.72;;;11.40;99.90;;;-144.05;72.40;125687.94;4907650;29;20056;-89
2022/08/07 00:53:19;;;;;;;6.05;4.07;;;11.30;99.90;;;-144.05;72.56;125687.94;4902576;29;20040;-90
2022/08/07 00:55:45;;;;;;;8.18;3.90;;;11.30;99.90;;;-144.05;72.83;125687.94;4917999;29;20042;-90
2022/08/07 00:58:12;;;;;;;5.93;4.40;;;11.30;99.90;;;-144.05;73.04;125687.94;4902254;29;20465;-89
2022/08/07 01:00:38;;;;;;;7.20;4.60;;;11.20;99.90;;;-144.05;73.27;125687.94;4901875;29;20152;-89
2022/08/07 01:03:05;;;;;;;8.70;4.05;;;11.20;99.90;;;-144.05;73.45;125687.94;4902090;29;20487;-89
2022/08/07 01:05:36;;;;;;;7.43;3.97;;;11.20;99.90;;;-144.05;73.59;125687.94;4902101;29;20028;-86
2022/08/07 01:08:02;;;;;;;7.65;3.92;;;11.10;99.90;;;-144.05;73.72;125687.94;4901884;29;20032;-88
2022/08/07 01:10:29;;;;;;;6.10;3.63;;;11.10;99.90;;;-144.05;74.06;125687.94;4901729;29;20438;-88
2022/08/07 01:12:55;;;;;;;5.47;3.75;;;11.10;99.90;;;-144.05;74.26;125687.94;4907492;29;20446;-89
2022/08/07 01:15:24;;;;;;;9.20;3.45;;;11.00;99.90;;;-144.05;74.42;125687.94;4937753;29;20028;-89
2022/08/07 01:17:50;;;;;;;6.28;3.40;;;11.00;99.90;;;-144.05;74.42;125687.94;4920663;29;20115;-88
2022/08/07 01:20:32;;;;;;;6.68;3.15;;;11.00;99.90;;;-144.05;73.92;125687.94;4920226;29;20493;-89
2022/08/07 01:23:00;;;;;;;5.40;3.10;;;11.00;99.90;;;-144.05;73.79;125687.94;4920521;29;20035;-89
2022/08/07 01:25:28;;;;;;;6.35;3.63;;;11.00;99.90;;;-144.05;73.88;125687.94;4920407;29;20032;-87
2022/08/07 01:27:55;;;;;;;4.65;2.97;;;10.90;99.90;;;-144.05;73.85;125687.94;4920678;29;20659;-90
2022/08/07 01:30:25;;;;;;;5.30;3.50;;;10.90;99.90;;;-144.05;73.85;125687.94;4919979;29;20045;-89
2022/08/07 01:32:51;;;;;;;7.20;3.03;;;10.80;99.90;;;-144.05;74.24;125687.94;4920000;29;20042;-89
2022/08/07 01:35:17;;;;;;;4.88;3.20;;;10.80;99.90;;;-144.05;74.25;125687.94;4920597;29;20035;-89
2022/08/07 01:37:44;;;;;;;6.03;3.47;;;10.80;99.90;;;-144.05;74.32;125687.94;4920616;29;20043;-89
2022/08/07 01:40:13;;;;;;;6.32;4.40;;;10.80;99.90;;;-144.05;74.05;125687.94;4920387;29;20027;-88
2022/08/07 01:42:39;;;;;;;5.88;3.60;;;10.70;99.90;;;-144.05;73.74;125687.94;4920043;29;20059;-89
2022/08/07 01:45:06;;;;;;;3.80;3.05;;;10.80;99.90;;;-144.05;73.73;125687.94;4920199;29;20031;-89
2022/08/07 01:47:32;;;;;;;5.50;3.72;;;10.60;99.90;;;-144.05;74.53;125687.94;4920486;29;20031;-89
2022/08/07 01:49:59;;;;;;;7.10;3.63;;;10.70;99.90;;;-144.05;74.84;125687.94;4919796;29;20447;-88
2022/08/07 01:52:30;;;;;;;7.13;4.00;;;10.60;99.90;;;-144.05;75.28;125687.94;4920417;29;20127;-90
2022/08/07 01:55:02;;;;;;;6.45;3.83;;;10.60;99.90;;;-144.05;75.38;125687.94;4920653;29;20461;-89
2022/08/07 01:57:35;;;;;;;5.70;3.42;;;10.60;99.90;;;-144.05;75.44;125687.94;4920342;29;20130;-91
2022/08/07 02:00:08;;;;;;;4.35;3.22;;;10.60;99.90;;;-144.05;75.60;125687.94;4920055;29;20459;-89
2022/08/07 02:02:49;;;;;;;5.00;3.67;;;10.60;99.90;;;-144.05;75.55;125687.94;4920595;29;20047;-90
2022/08/07 02:05:49;;;;;;;7.95;3.35;;;10.50;99.90;;;-144.05;75.97;125687.94;4919916;29;20043;-89
2022/08/07 02:08:22;;;;;;;5.47;3.60;;;10.50;99.90;;;-144.05;76.15;125687.94;4919823;29;20035;-89
2022/08/07 02:10:52;;;;;;;6.60;3.17;;;10.50;99.90;;;-144.05;76.12;125687.94;4920432;29;20438;-90
2022/08/07 02:13:25;;;;;;;4.40;3.10;;;10.50;99.90;;;-144.05;76.43;125687.94;4920384;29;20123;-89
2022/08/07 02:15:55;;;;;;;4.90;3.10;;;10.50;99.90;;;-144.05;76.40;125687.94;4919888;29;20034;-89
2022/08/07 02:18:22;;;;;;;6.25;3.15;;;10.50;99.90;;;-144.05;76.22;125687.94;4920415;29;20032;-89
2022/08/07 02:20:55;;;;;;;3.95;2.60;;;10.40;99.90;;;-144.05;76.12;125687.94;4920587;29;20206;-89
2022/08/07 02:23:24;;;;;;;7.10;3.55;;;10.40;99.90;;;-144.05;76.02;125687.94;4919877;29;20059;-87
2022/08/07 02:25:54;;;;;;;4.45;3.33;;;10.30;99.90;;;-144.05;76.19;125687.94;4919808;29;20047;-91
2022/08/07 02:28:24;;;;;;;4.18;3.30;;;10.30;99.90;;;-144.05;76.27;125687.94;4919596;29;20031;-89
2022/08/07 02:30:52;;;;;;;4.25;3.05;;;10.30;99.90;;;-144.05;76.35;125687.94;4919215;29;20032;-92
2022/08/07 02:33:23;;;;;;;3.88;3.15;;;10.30;99.90;;;-144.05;76.06;125687.94;4919395;29;20082;-89
2022/08/07 02:35:51;;;;;;;4.72;2.75;;;10.20;99.90;;;-144.05;76.04;125687.94;4919322;29;20031;-89
2022/08/07 02:38:24;;;;;;;5.18;3.50;;;10.20;99.90;;;-144.05;76.21;125687.94;4919250;29;20083;-89
2022/08/07 02:40:51;;;;;;;6.75;3.70;;;10.20;99.90;;;-144.05;76.39;125687.94;4919225;29;20032;-89
2022/08/07 02:43:19;;;;;;;5.82;2.83;;;10.20;99.90;;;-144.05;76.52;125687.94;4919580;29;20056;-89
2022/08/07 02:45:47;;;;;;;5.28;3.53;;;10.20;99.90;;;-144.05;76.62;125687.94;4923052;29;20038;-90
2022/08/07 02:48:14;;;;;;;7.38;3.28;;;10.20;99.90;;;-144.05;77.11;125687.94;4923503;29;20048;-89
2022/08/07 02:50:47;;;;;;;5.00;3.03;;;10.20;99.90;;;-144.05;77.08;125687.94;4923091;29;20070;-90
2022/08/07 02:53:25;;;;;;;6.97;3.45;;;10.20;99.90;;;-144.05;77.46;125687.94;4922671;29;20051;-89
2022/08/07 02:55:56;;;;;;;7.03;3.20;;;10.20;99.90;;;-144.05;77.25;125687.94;4922673;29;20039;-87
2022/08/07 02:58:26;;;;;;;5.20;3.30;;;10.20;99.90;;;-144.05;77.38;125687.94;4929107;29;20031;-88
2022/08/07 03:00:57;;;;;;;4.13;2.83;;;10.10;99.90;;;-144.05;77.54;125687.94;4949840;29;20046;-89
2022/08/07 03:03:31;;;;;;;4.22;2.63;;;10.10;99.90;;;-144.05;77.74;125687.94;4924923;29;20032;-89
2022/08/07 03:06:01;;;;;;;6.30;3.47;;;10.00;99.90;;;-144.05;78.00;125687.94;4923401;29;20074;-90
2022/08/07 03:08:27;;;;;;;5.47;3.30;;;10.10;99.90;;;-144.05;78.05;125687.94;4923378;29;20042;-88
2022/08/07 03:10:56;;;;;;;6.40;3.63;;;10.10;99.90;;;-144.05;78.29;125687.94;4923783;29;20027;-89
2022/08/07 03:13:22;;;;;;;4.95;3.30;;;10.10;99.90;;;-144.05;78.55;125687.94;4931009;29;20036;-89
2022/08/07 03:15:50;;;;;;;4.72;3.50;;;10.20;99.90;;;-144.05;78.59;125687.94;4920502;29;20028;-89
2022/08/07 03:18:17;;;;;;;6.13;3.92;;;10.30;99.90;;;-144.05;78.55;125687.94;4904671;29;20432;-89
2022/08/07 03:20:45;;;;;;;5.45;3.25;;;10.20;99.90;;;-144.05;78.15;125687.94;4922076;29;20099;-90
2022/08/07 03:23:13;;;;;;;5.32;3.15;;;10.30;99.90;;;-144.05;78.11;125687.94;4904789;29;20040;-89
2022/08/07 03:25:41;;;;;;;5.05;3.10;;;10.30;99.90;;;-144.05;77.71;125687.94;4905328;29;20450;-90
2022/08/07 03:28:15;;;;;;;3.55;2.80;;;10.30;99.90;;;-144.05;77.66;125687.94;4920241;29;20043;-90
2022/08/07 03:30:44;;;;;;;3.25;2.50;;;10.30;99.90;;;-144.05;77.48;125687.94;4904615;29;20459;-89
2022/08/07 03:33:13;;;;;;;5.05;3.00;;;10.30;99.90;;;-144.05;77.47;125687.94;4920426;29;20054;-90
2022/08/07 03:35:42;;;;;;;3.35;2.58;;;10.20;99.90;;;-144.05;77.53;125687.94;4903972;29;20463;-90
2022/08/07 03:38:11;;;;;;;4.75;2.80;;;10.30;99.90;;;-144.05;77.39;125687.94;4920283;29;20028;-90
2022/08/07 03:40:38;;;;;;;4.28;2.70;;;10.20;99.90;;;-144.05;77.38;125687.94;4904884;29;20095;-91
2022/08/07 03:43:05;;;;;;;5.57;2.42;;;10.10;99.90;;;-144.05;77.43;125687.94;4904703;29;20123;-90
2022/08/07 03:45:32;;;;;;;6.03;3.20;;;10.10;99.90;;;-144.05;77.46;125687.94;4903964;29;20032;-90
2022/08/07 03:47:59;;;;;;;4.93;2.70;;;10.00;99.90;;;-144.05;77.31;125687.94;4921630;29;20029;-88
2022/08/07 03:50:28;;;;;;;7.32;3.13;;;9.90;99.90;;;-144.05;77.64;125687.94;4905137;29;20039;-89
2022/08/07 03:52:58;;;;;;;3.92;3.15;;;9.80;99.90;;;-144.05;77.73;125687.94;4921071;29;20032;-89
2022/08/07 03:55:27;;;;;;;6.30;2.85;;;9.80;99.90;;;-144.05;77.90;125687.94;4921720;29;20059;-88
2022/08/07 03:57:56;;;;;;;4.50;3.40;;;9.80;99.90;;;-144.05;78.05;125687.94;4920838;29;20127;-90
2022/08/07 04:00:25;;;;;;;6.68;3.60;;;9.80;99.90;;;-144.05;78.46;125687.94;4904743;29;20039;-87
2022/08/07 04:02:51;;;;;;;4.70;3.30;;;9.80;99.90;;;-144.05;78.42;125687.94;4922249;29;20039;-89
2022/08/07 04:05:21;;;;;;;6.00;3.67;;;9.90;99.90;;;-144.05;78.37;125687.94;4904743;29;20051;-90
2022/08/07 04:07:47;;;;;;;5.70;3.50;;;9.90;99.90;;;-144.05;77.91;125687.94;4905425;29;20032;-88
2022/08/07 04:10:13;;;;;;;3.15;2.85;;;10.00;99.90;;;-144.05;77.92;125687.94;4905316;29;20103;-89
2022/08/07 04:12:40;;;;;;;4.57;3.53;;;10.00;99.90;;;-144.05;77.80;125687.94;4908716;29;20036;-89
2022/08/07 04:15:10;;;;;;;5.18;3.10;;;10.00;99.90;;;-144.05;77.64;125687.94;4923054;29;20038;-88
2022/08/07 04:17:36;;;;;;;4.15;3.20;;;10.00;99.90;;;-144.05;77.48;125687.94;4923090;29;20295;-89
2022/08/07 04:20:09;;;;;;;5.05;3.13;;;10.00;99.90;;;-144.05;77.48;125687.94;4923204;29;20036;-91
2022/08/07 04:22:36;;;;;;;5.10;3.35;;;10.00;99.90;;;-144.05;77.31;125687.94;4923546;29;20055;-89
2022/08/07 04:25:03;;;;;;;6.47;3.00;;;10.00;99.90;;;-144.05;77.32;125687.94;4923453;29;20066;-92
2022/08/07 04:27:30;;;;;;;4.05;3.10;;;10.00;99.90;;;-144.05;77.28;125687.94;4923354;29;20479;-90
2022/08/07 04:29:57;;;;;;;4.60;2.95;;;10.00;99.90;;;-144.05;77.43;125687.94;4923208;29;20466;-88
2022/08/07 04:32:24;;;;;;;4.85;3.30;;;10.00;99.90;;;-144.05;77.34;125687.94;4923821;29;20058;-90
2022/08/07 04:34:52;;;;;;;4.63;3.35;;;10.00;99.90;;;-144.05;77.38;125687.94;4924024;29;20031;-90
2022/08/07 04:37:19;;;;;;;3.63;3.00;;;10.00;99.90;;;-144.05;77.72;125687.94;4923153;29;20126;-88
2022/08/07 04:39:45;;;;;;;3.95;3.30;;;10.00;99.90;;;-144.05;77.43;125687.94;4922957;29;20106;-91
2022/08/07 04:42:11;;;;;;;4.63;3.20;;;10.00;99.90;;;-144.05;77.39;125687.94;4930209;29;20035;-87
2022/08/07 04:44:38;;;;;;;4.10;2.90;;;10.00;99.90;;;-144.05;77.43;125687.94;4940384;29;20050;-88
2022/08/07 04:47:36;;;;;;;4.22;3.38;;;10.00;99.90;;;-144.05;77.39;125687.94;4931618;29;20197;-90
2022/08/07 04:50:36;;;;;;;4.78;3.05;;;9.90;99.90;;;-144.05;77.73;125687.94;4921529;29;20044;-89
2022/08/07 04:53:36;;;;;;;5.30;3.15;;;9.90;99.90;;;-144.05;77.88;125687.94;4923145;29;20043;-88
2022/08/07 04:56:31;;;;;;;3.95;3.28;;;10.00;99.90;;;-144.05;77.89;125687.94;4924388;29;20521;-91
2022/08/07 04:59:24;;;;;;;5.60;3.03;;;10.00;99.90;;;-144.05;78.06;125687.94;4923252;29;20039;-89
2022/08/07 05:02:02;;;;;;;5.53;3.22;;;10.10;99.90;;;-144.05;77.95;125687.94;4938054;29;20118;-88
2022/08/07 05:04:59;;;;;;;7.13;3.17;;;10.10;99.90;;;-144.05;78.15;125687.94;4938891;29;20027;-90
2022/08/07 05:07:46;;;;;;;7.40;3.17;;;10.20;99.90;;;-144.05;77.95;125687.94;4920337;29;20039;-88
2022/08/07 05:10:39;;;;;;;5.57;3.50;;;10.20;99.90;;;-144.05;78.29;125687.94;4926843;29;20043;-87
2022/08/07 05:13:35;;;;;;;4.20;2.83;;;10.30;99.90;;;-144.05;78.18;125687.94;4920067;29;20033;-90
2022/08/07 05:16:14;;;;;;;3.92;2.95;;;10.40;99.90;;;-144.05;78.03;125687.94;4902220;29;20024;-89
2022/08/07 05:18:55;;;;;;;4.63;3.50;;;10.50;99.90;;;-144.05;78.16;125687.94;4922264;29;20246;-90
2022/08/07 05:21:28;;;;;;;4.80;3.00;;;10.70;99.90;;;-144.05;78.21;125687.94;4907286;29;20035;-89
2022/08/07 05:24:08;;;;;;;3.72;2.75;;;11.00;99.90;;;-144.05;78.45;125687.94;4904582;29;20131;-88
2022/08/07 05:26:38;;;;;;;3.60;2.78;;;11.30;99.90;;;-144.05;78.48;125687.94;4904366;29;20494;-89
2022/08/07 05:29:09;;;;;;;3.85;3.05;;;11.50;99.90;;;-144.05;78.15;125687.94;4921618;29;20152;-89
2022/08/07 05:31:41;;;;;;;3.25;2.85;;;11.80;99.90;;;-144.05;77.54;125687.94;4905548;29;20127;-89
2022/08/07 05:34:13;;;;;;;4.70;2.88;;;12.10;99.90;;;-144.05;76.90;125687.94;4906488;29;20034;-91
2022/08/07 05:36:46;;;;;;;5.00;2.60;;;12.40;99.90;;;-144.05;76.30;125687.94;4906977;29;20036;-89
2022/08/07 05:39:17;;;;;;;3.38;2.80;;;12.70;99.90;;;-144.05;75.02;125687.94;4907167;29;20095;-89
2022/08/07 05:41:47;;;;;;;3.05;2.17;;;13.00;99.90;;;-144.05;73.33;125687.94;4902408;29;20016;-89
2022/08/07 05:44:18;;;;;;;3.40;2.80;;;13.30;99.90;;;-144.05;71.56;125687.94;4902713;29;20067;-89
2022/08/07 05:46:49;;;;;;;6.50;2.80;;;13.70;99.90;;;-144.05;69.34;125687.94;4903946;29;20039;-90
2022/08/07 05:49:17;;;;;;;3.47;2.47;;;13.90;99.90;;;-144.05;67.60;125687.94;4921821;29;20031;-89
2022/08/07 05:51:46;;;;;;;4.35;2.30;;;14.30;99.90;;;-144.05;65.96;125687.94;4904461;29;20043;-92
2022/08/07 05:54:14;;;;;;;4.00;2.63;;;14.50;99.90;;;-144.05;64.06;125687.94;4901198;29;20513;-91
2022/08/07 05:56:42;;;;;;;3.90;2.30;;;14.80;99.90;;;-144.05;62.36;125687.94;4918870;29;20111;-89
2022/08/07 05:59:18;;;;;;;5.15;2.88;;;15.20;99.90;;;-144.05;61.22;125687.94;4901525;29;20517;-91
2022/08/07 06:01:48;;;;;;;4.50;2.38;;;15.40;99.90;;;-144.05;59.78;125687.94;4902136;29;20137;-91
2022/08/07 06:04:20;;;;;;;5.25;2.97;;;15.80;99.90;;;-144.05;58.68;125687.94;4902140;29;20119;-91
2022/08/07 06:06:48;;;;;;;5.57;2.20;;;16.10;99.90;;;-144.05;57.80;125687.94;4901230;29;20032;-90
2022/08/07 06:09:17;;;;;;;5.13;2.78;;;16.30;99.90;;;-144.05;56.64;125687.94;4900377;29;20059;-91
2022/08/07 06:11:44;;;;;;;3.95;2.38;;;16.50;99.90;;;-144.05;56.20;125687.94;4900381;29;20111;-89
2022/08/07 06:14:11;;;;;;;5.35;2.78;;;16.70;99.90;;;-144.05;55.48;125687.94;4900508;29;20028;-91
2022/08/07 06:16:39;;;;;;;6.47;2.47;;;17.00;99.90;;;-144.05;54.65;125687.94;4901531;29;20040;-90
2022/08/07 06:19:06;;;;;;;4.25;2.33;;;17.30;99.90;;;-144.05;53.23;125687.94;4903101;29;20064;-89
2022/08/07 06:21:33;;;;;;;4.28;2.65;;;17.60;99.90;;;-144.05;52.46;125687.94;4907735;29;20443;-89
2022/08/07 06:23:59;;;;;;;4.20;2.55;;;17.90;99.90;;;-144.05;52.21;125687.94;4911189;29;20115;-88
2022/08/07 06:26:26;;;;;;;5.78;2.90;;;18.10;99.90;;;-144.05;51.67;125687.94;4908914;29;20478;-91
2022/08/07 06:28:56;;;;;;;4.40;2.60;;;18.30;99.90;;;-144.05;50.99;125687.94;4907599;29;20039;-88
2022/08/07 06:31:22;;;;;;;4.47;2.55;;;18.50;99.90;;;-144.05;51.06;125687.94;4907883;29;20542;-88
2022/08/07 06:33:48;;;;;;;4.07;2.80;;;18.70;99.90;;;-144.05;50.51;125687.94;4907600;29;20031;-87
2022/08/07 06:36:15;;;;;;;5.45;2.88;;;18.90;99.90;;;-144.05;49.47;125687.94;4925498;29;20075;-90
2022/08/07 06:38:43;;;;;;;3.30;2.30;;;19.10;99.90;;;-144.05;49.02;125687.94;4926483;29;20056;-87
2022/08/07 06:41:21;;;;;;;4.85;2.58;;;19.30;99.90;;;-144.05;48.15;125687.94;4908853;29;20024;-90
2022/08/07 06:43:49;;;;;;;4.57;2.40;;;19.50;99.90;;;-144.05;48.12;125687.94;4910079;29;20059;-90
2022/08/07 06:46:16;;;;;;;3.47;1.98;;;19.70;99.90;;;-144.05;47.10;125687.94;4909730;29;20490;-89
2022/08/07 06:48:43;;;;;;;2.88;1.90;;;19.90;99.90;;;-144.05;45.89;125687.94;4912106;29;20036;-89
2022/08/07 06:51:19;;;;;;;4.07;1.85;;;20.20;99.90;;;-144.05;44.22;125687.94;4905624;29;20042;-88
2022/08/07 06:53:48;;;;;;;3.60;1.70;;;20.20;99.90;;;-144.05;44.00;125687.94;4906053;29;20513;-89
2022/08/07 06:56:16;;;;;;;3.20;1.60;;;20.20;99.90;;;-144.05;43.59;125687.94;4905452;29;20032;-89
2022/08/07 06:58:46;;;;;;;3.05;1.40;;;20.40;99.90;;;-144.05;43.42;125687.94;4906526;29;20501;-89
2022/08/07 07:01:15;;;;;;;3.08;1.60;;;20.70;99.90;;;-144.05;42.95;125687.94;4906093;29;20061;-89
2022/08/07 07:03:41;;;;;;;1.77;1.15;;;20.90;99.90;;;-144.05;41.19;125687.94;4906195;29;20263;-89
2022/08/07 07:06:09;;;;;;;2.80;1.35;;;21.20;99.90;;;-144.05;41.08;125687.94;4906480;29;20185;-88
2022/08/07 07:08:35;;;;;;;2.08;1.10;;;21.50;99.90;;;-144.05;38.93;125687.94;4906786;29;20047;-88
2022/08/07 07:11:04;;;;;;;4.45;1.33;;;21.60;99.90;;;-144.05;38.09;125687.94;4923384;29;20024;-86
2022/08/07 07:13:46;;;;;;;1.77;1.40;;;21.80;99.90;;;-144.05;38.06;125687.94;4934353;29;20056;-87
2022/08/07 07:16:20;;;;;;;2.85;1.50;;;22.10;99.90;;;-144.05;37.55;125687.94;4925389;29;20047;-87
2022/08/07 07:19:03;;;;;;;5.47;1.40;;;22.40;99.90;;;-144.05;37.08;125687.94;4927697;29;20016;-87
2022/08/07 07:21:39;;;;;;;3.05;1.40;;;22.60;99.90;;;-144.05;36.40;125687.94;4936329;29;20290;-86
2022/08/07 07:24:09;;;;;;;3.20;1.40;;;22.70;99.70;;;-144.05;35.64;125687.94;4937281;29;20090;-89
2022/08/07 07:26:40;;;;;;;3.67;1.25;;;22.80;97.00;;;-144.05;35.59;125687.94;4951019;29;20066;-87
2022/08/07 07:29:16;;;;;;;1.75;1.00;;;22.80;96.30;;;-144.05;35.52;125687.94;4928140;29;20485;-89
2022/08/07 07:31:51;;;;;;;3.22;0.90;;;22.80;95.90;;;-144.05;34.62;125687.94;4923660;29;20175;-88
2022/08/07 07:34:27;;;;;;;4.63;1.10;;;22.80;94.00;;;-144.05;33.86;125687.94;4923355;29;20104;-88
2022/08/07 07:36:57;;;;;;;3.08;0.90;;;22.90;92.30;;;-144.05;33.95;125687.94;4939806;29;20031;-89
2022/08/07 07:39:27;;;;;;;2.67;0.93;;;22.90;92.30;;;-144.05;34.50;125687.94;4922719;29;20027;-88
2022/08/07 07:41:56;;;;;;;3.80;0.98;;;23.00;92.90;;;-144.05;34.87;125687.94;4923564;29;20135;-87
2022/08/07 07:44:26;;;;;;;1.85;0.82;;;23.30;93.20;;;-144.05;33.52;125687.94;4926382;29;20541;-89
2022/08/07 07:46:55;;;;;;;3.20;0.95;;;23.30;91.40;;;-144.05;33.69;125687.94;4924265;29;20393;-90
2022/08/07 07:49:26;;;;;;;1.92;0.90;;;23.40;90.80;;;-144.05;33.94;125687.94;4931493;28;20044;-91
2022/08/07 07:51:56;;;;;;;3.53;1.10;;;23.40;90.60;;;-144.05;33.72;125687.94;4927095;29;20070;-89
2022/08/07 07:54:25;;;;;;;3.25;0.93;;;23.70;90.40;;;-144.05;32.96;125687.94;4925797;29;20070;-90
2022/08/07 07:56:55;;;;;;;1.90;0.75;;;23.80;88.20;;;-144.05;32.99;125687.94;4925283;29;20051;-85
2022/08/07 07:59:24;;;;;;;1.08;0.73;;;24.10;87.80;;;-144.05;32.04;125687.94;4927019;29;20052;-89
2022/08/07 08:01:53;;;;;;;1.65;0.90;;;24.40;86.30;;;-144.05;31.29;125687.94;4928194;29;20248;-88
2022/08/07 08:04:25;;;;;;;1.45;0.82;;;24.80;81.80;;;-144.05;31.79;125687.94;4932697;29;20043;-87
2022/08/07 08:06:53;;;;;;;1.30;0.93;;;24.80;83.40;;;-144.05;31.46;125687.94;4929798;29;20039;-85
2022/08/07 08:09:25;;;;;;;1.80;0.57;;;24.80;80.60;;;-144.05;31.32;125687.94;4931210;29;20079;-87
2022/08/07 08:11:57;;;;;;;1.60;0.73;;;24.90;80.10;;;-144.05;30.82;125687.94;4947481;29;20024;-86
2022/08/07 08:14:34;;;;;;;1.48;0.50;;;25.10;77.80;;;-144.05;30.80;125687.94;4931117;29;20030;-85
2022/08/07 08:17:07;;;;;;;2.45;0.80;;;25.20;78.00;;;-144.05;30.74;125687.94;4912099;29;20105;-86
2022/08/07 08:19:37;;;;;;;1.92;0.70;;;25.50;76.30;;;-144.05;30.53;125687.94;4913395;29;20031;-87
2022/08/07 08:27:49;;;;;;;2.20;0.70;;;25.90;74.00;;;-144.05;30.01;125687.94;4924951;29;20035;-86
2022/08/07 08:30:41;;;;;;;2.10;0.70;;;25.70;73.90;;;-144.05;29.82;125687.94;4924685;29;20035;-86
2022/08/07 08:33:17;;;;;;;1.63;0.40;;;25.90;71.50;;;-144.05;28.86;125687.94;4925622;29;20430;-88
2022/08/07 08:36:19;;;;;;;;;;;26.00;68.90;;;-144.05;28.83;125687.94;4908334;29;20032;-88
2022/08/07 08:38:49;;;;;;;2.70;0.40;;;25.80;68.10;;;-144.05;28.63;125687.94;4922892;29;19982;-86
2022/08/07 08:41:52;;;;;;;1.10;0.60;;;25.80;67.30;;;-144.05;28.58;125687.94;4924930;29;20040;-86
2022/08/07 08:44:53;;;;;;;2.63;0.40;;;25.60;66.30;;;-144.05;28.61;125687.94;4906235;29;20040;-87
2022/08/07 08:48:35;;;;;;;3.22;0.45;;;25.70;66.10;;;-144.05;27.78;125687.94;4907575;29;20036;-88
2022/08/07 08:51:26;;;;;;;2.08;0.50;;;26.20;62.80;;;-144.05;27.88;125687.94;4884459;29;20052;-88
2022/08/07 08:54:48;;;;;;;1.00;0.55;;;26.40;62.90;;;-144.05;27.50;125687.94;4907009;29;20024;-88
2022/08/07 08:57:38;;;;;;;0.70;0.30;;;26.60;60.40;;;-144.05;26.65;125687.94;4915854;29;20047;-90
2022/08/07 09:00:11;;;;;;;0.38;0.22;;;26.80;58.80;;;-144.05;26.13;125687.94;4906130;29;20032;-86
2022/08/07 09:03:11;;;;;;;2.22;0.32;;;26.50;56.70;;;-144.05;26.59;125687.94;4906302;29;20036;-88
2022/08/07 09:06:02;;;;;;;2.15;0.50;;;26.40;56.40;;;-144.05;26.48;125687.94;4906164;29;20056;-87
2022/08/07 09:09:19;;;;;;;0.88;0.50;;;26.20;57.00;;;-144.05;26.67;125687.94;4928814;29;20080;-85
2022/08/07 09:12:33;;;;;;;1.55;0.38;;;26.40;57.50;;;-144.05;26.42;125687.94;4912652;29;20032;-83
2022/08/07 09:15:59;;;;;;;2.67;0.40;;;26.50;57.00;;;-144.05;25.80;125687.94;4920880;29;20035;-87
2022/08/07 09:18:54;;;;;;;1.00;0.68;;;26.60;55.40;;;-144.05;25.91;125687.94;4904834;29;20032;-90
2022/08/07 09:22:15;;;;;;;0.73;0.50;;;27.10;56.20;;;-144.05;24.58;125687.94;4908856;29;20056;-89
2022/08/07 09:25:17;;;;;;;1.30;0.30;;;27.30;52.50;;;-144.05;25.82;125687.94;4906045;29;20025;-88
2022/08/07 09:28:00;;;;;;;1.48;0.40;;;26.90;53.40;;;-144.05;26.28;125687.94;4903304;29;20104;-87
2022/08/07 09:31:00;;;;;;;1.50;0.50;;;26.80;54.90;;;-144.05;26.36;125687.94;4890687;29;20016;-88
2022/08/07 09:34:03;;;;;;;1.13;0.50;;;26.70;54.20;;;-144.05;25.00;125687.94;4915362;29;20052;-88
2022/08/07 09:36:58;;;;;;;1.13;0.50;;;26.90;52.90;;;-144.05;25.14;125687.94;4917213;29;20025;-89
2022/08/07 09:39:49;;;;;;;0.52;0.40;;;26.80;52.60;;;-144.05;25.16;125687.94;4889717;29;20120;-89
2022/08/07 09:42:55;;;;;;;1.23;0.32;;;26.80;53.80;;;-144.05;24.95;125687.94;4893645;29;20032;-85
2022/08/07 09:45:54;;;;;;;0.75;0.30;;;27.00;52.60;;;-144.05;25.30;125687.94;4916086;29;20316;-87
2022/08/07 09:49:15;;;;;;;1.08;0.38;;;26.90;53.20;;;-144.05;25.38;125687.94;4916754;29;20117;-86
2022/08/07 09:52:18;;;;;;;1.38;0.40;;;26.90;53.40;;;-144.05;25.21;125687.94;4891538;29;20028;-89
2022/08/07 09:55:09;;;;;;;0.55;0.30;;;27.10;52.40;;;-144.05;24.78;125687.94;4908913;29;20052;-89
2022/08/07 09:58:22;;;;;;;0.82;0.20;;;27.00;51.30;;;-144.05;25.74;125687.94;4891183;29;20067;-89
2022/08/07 10:01:50;;;;;;;0.40;0.40;;;26.90;52.30;;;-144.05;25.67;125687.94;4904440;29;20072;-91
2022/08/07 10:04:58;;;;;;;0.65;0.47;;;27.20;54.20;;;-144.05;25.50;125687.94;4904831;29;20115;-88
2022/08/07 10:08:22;;;;;;;1.95;0.40;;;27.50;53.80;;;-144.05;25.26;125687.94;4902664;29;20068;-89
2022/08/07 11:03:26;;;;;;;3.08;0.47;;;27.50;51.30;;;-144.05;24.35;125687.94;4937781;29;20299;-86
2022/08/07 11:06:50;;;;;;;1.98;0.40;;;27.40;49.10;;;-144.05;24.41;125687.94;4927217;29;20039;-87
2022/08/07 11:09:30;;;;;;;3.28;0.30;;;27.40;49.30;;;-144.05;24.69;125687.94;4887899;29;20131;-88
2022/08/07 11:12:29;;;;;;;1.50;0.40;;;27.80;49.70;;;-144.05;23.96;125687.94;4906003;29;20123;-84
2022/08/07 11:15:06;;;;;;;0.93;0.30;;;27.80;48.10;;;-144.05;24.08;125687.94;4913151;29;20466;-86
2022/08/07 11:17:48;;;;;;;1.15;0.20;;;27.50;47.90;;;-144.05;25.37;125687.94;4907175;29;20051;-87
2022/08/07 11:20:25;;;;;;;1.17;0.60;;;27.40;49.90;;;-144.05;24.83;125687.94;4911126;29;20104;-88
2022/08/07 11:23:17;;;;;;;0.68;0.30;;;27.80;50.70;;;-144.05;24.42;125687.94;4933327;29;20490;-86
2022/08/07 11:26:04;;;;;;;0.65;0.30;;;28.10;49.60;;;-144.05;24.17;125687.94;4918315;29;20032;-89
2022/08/07 11:28:48;;;;;;;1.23;0.40;;;28.30;48.50;;;-144.05;24.02;125687.94;4930007;29;20071;-86
2022/08/07 11:31:44;;;;;;;2.85;1.58;;;28.30;48.10;;;-144.05;23.29;125687.94;4914734;29;20028;-88
2022/08/07 11:34:57;;;;;;;1.02;0.55;;;28.40;46.40;;;-144.05;23.29;125687.94;4927944;29;20028;-88